createdAt,value
2018-06-09T00:00:30.658Z,1013.56
2018-06-09T00:01:30.704Z,1013.53
2018-06-09T00:02:31.946Z,1013.49
2018-06-09T00:03:30.554Z,1013.51
2018-06-09T00:04:30.625Z,1013.51
2018-06-09T00:05:30.729Z,1013.52
2018-06-09T00:06:30.700Z,1013.48
2018-06-09T00:07:32.031Z,1013.47
2018-06-09T00:08:30.322Z,1013.41
2018-06-09T00:09:30.786Z,1013.43
2018-06-09T00:10:31.992Z,1013.44
2018-06-09T00:11:30.703Z,1013.42
2018-06-09T00:12:31.697Z,1013.41
2018-06-09T00:13:30.718Z,1013.46
2018-06-09T00:14:30.734Z,1013.43
2018-06-09T00:15:30.617Z,1013.42
2018-06-09T00:16:30.496Z,1013.43
2018-06-09T00:17:30.646Z,1013.48
2018-06-09T00:18:30.791Z,1013.48
2018-06-09T00:19:30.714Z,1013.46
2018-06-09T00:20:30.751Z,1013.44
2018-06-09T00:21:30.378Z,1013.44
2018-06-09T00:22:31.996Z,1013.42
2018-06-09T00:23:30.589Z,1013.42
2018-06-09T00:24:30.400Z,1013.38
2018-06-09T00:25:31.324Z,1013.35
2018-06-09T00:26:30.653Z,1013.35
2018-06-09T00:27:30.694Z,1013.32
2018-06-09T00:28:30.829Z,1013.31
2018-06-09T00:29:30.819Z,1013.3
2018-06-09T00:30:30.529Z,1013.3
2018-06-09T00:31:30.522Z,1013.3
2018-06-09T00:32:30.506Z,1013.32
2018-06-09T00:33:30.778Z,1013.31
2018-06-09T00:34:30.644Z,1013.31
2018-06-09T00:35:30.774Z,1013.33
2018-06-09T00:36:30.605Z,1013.32
2018-06-09T00:37:30.764Z,1013.33
2018-06-09T00:38:30.130Z,1013.35
2018-06-09T00:39:29.826Z,1013.36
2018-06-09T00:40:30.714Z,1013.39
2018-06-09T00:41:29.942Z,1013.33
2018-06-09T00:42:30.003Z,1013.35
2018-06-09T00:43:30.064Z,1013.33
2018-06-09T00:44:29.915Z,1013.33
2018-06-09T00:45:30.804Z,1013.33
2018-06-09T00:46:30.903Z,1013.33
2018-06-09T00:47:30.043Z,1013.35
2018-06-09T00:48:30.040Z,1013.34
2018-06-09T00:49:31.585Z,1013.36
2018-06-09T00:50:30.135Z,1013.37
2018-06-09T00:51:30.572Z,1013.38
2018-06-09T00:52:29.987Z,1013.36
2018-06-09T00:53:29.915Z,1013.4
2018-06-09T00:54:29.994Z,1013.44
2018-06-09T00:55:29.885Z,1013.41
2018-06-09T00:56:29.878Z,1013.43
2018-06-09T00:57:29.897Z,1013.42
2018-06-09T00:58:29.968Z,1013.42
2018-06-09T00:59:30.067Z,1013.44
2018-06-09T01:00:29.819Z,1013.44
2018-06-09T01:01:29.861Z,1013.44
2018-06-09T01:02:30.084Z,1013.47
2018-06-09T01:03:29.982Z,1013.51
2018-06-09T01:04:30.394Z,1013.48
2018-06-09T01:05:29.817Z,1013.53
2018-06-09T01:06:29.979Z,1013.55
2018-06-09T01:07:29.897Z,1013.56
2018-06-09T01:08:30.016Z,1013.62
2018-06-09T01:09:30.081Z,1013.64
2018-06-09T01:10:29.911Z,1013.66
2018-06-09T01:11:46.435Z,1013.63
2018-06-09T01:12:29.829Z,1013.62
2018-06-09T01:13:30.044Z,1013.62
2018-06-09T01:14:29.865Z,1013.61
2018-06-09T01:15:30.097Z,1013.66
2018-06-09T01:16:29.790Z,1013.57
2018-06-09T01:17:29.881Z,1013.59
2018-06-09T01:18:30.061Z,1013.55
2018-06-09T01:19:29.965Z,1013.57
2018-06-09T01:20:29.946Z,1013.55
2018-06-09T01:21:30.651Z,1013.58
2018-06-09T01:22:29.988Z,1013.58
2018-06-09T01:23:29.827Z,1013.63
2018-06-09T01:24:29.895Z,1013.63
2018-06-09T01:25:30.029Z,1013.68
2018-06-09T01:26:30.123Z,1013.67
2018-06-09T01:27:29.961Z,1013.61
2018-06-09T01:28:39.896Z,1013.67
2018-06-09T01:29:29.877Z,1013.65
2018-06-09T01:30:30.056Z,1013.65
2018-06-09T01:31:30.012Z,1013.61
2018-06-09T01:32:30.064Z,1013.66
2018-06-09T01:33:29.984Z,1013.63
2018-06-09T01:34:30.011Z,1013.66
2018-06-09T01:35:30.012Z,1013.65
2018-06-09T01:36:29.964Z,1013.68
2018-06-09T01:37:30.015Z,1013.65
2018-06-09T01:38:30.230Z,1013.65
2018-06-09T01:39:29.939Z,1013.66
2018-06-09T01:40:29.961Z,1013.63
2018-06-09T01:41:29.962Z,1013.71
2018-06-09T01:42:30.042Z,1013.65
2018-06-09T01:43:30.143Z,1013.69
2018-06-09T01:44:32.564Z,1013.65
2018-06-09T01:45:30.027Z,1013.62
2018-06-09T01:46:29.966Z,1013.59
2018-06-09T01:47:29.997Z,1013.6
2018-06-09T01:48:29.933Z,1013.57
2018-06-09T01:49:29.966Z,1013.54
2018-06-09T01:50:30.124Z,1013.58
2018-06-09T01:51:29.958Z,1013.57
2018-06-09T01:52:29.935Z,1013.55
2018-06-09T01:53:30.098Z,1013.55
2018-06-09T01:54:30.014Z,1013.54
2018-06-09T01:55:29.938Z,1013.55
2018-06-09T01:56:30.039Z,1013.58
2018-06-09T01:57:30.060Z,1013.57
2018-06-09T01:58:29.944Z,1013.59
2018-06-09T01:59:32.601Z,1013.57
2018-06-09T02:00:30.175Z,1013.63
2018-06-09T02:01:29.937Z,1013.66
2018-06-09T02:02:30.047Z,1013.64
2018-06-09T02:03:30.081Z,1013.64
2018-06-09T02:04:30.085Z,1013.66
2018-06-09T02:05:32.596Z,1013.69
2018-06-09T02:06:30.069Z,1013.7
2018-06-09T02:07:30.103Z,1013.67
2018-06-09T02:08:30.076Z,1013.7
2018-06-09T02:09:30.245Z,1013.7
2018-06-09T02:10:29.954Z,1013.63
2018-06-09T02:11:29.987Z,1013.69
2018-06-09T02:12:32.375Z,1013.65
2018-06-09T02:13:30.123Z,1013.64
2018-06-09T02:14:30.323Z,1013.68
2018-06-09T02:15:30.026Z,1013.65
2018-06-09T02:16:29.953Z,1013.66
2018-06-09T02:17:29.959Z,1013.67
2018-06-09T02:18:29.979Z,1013.71
2018-06-09T02:19:30.076Z,1013.72
2018-06-09T02:20:30.062Z,1013.73
2018-06-09T02:21:30.097Z,1013.75
2018-06-09T02:22:30.022Z,1013.74
2018-06-09T02:23:30.165Z,1013.73
2018-06-09T02:24:32.577Z,1013.68
2018-06-09T02:25:29.967Z,1013.7
2018-06-09T02:26:30.053Z,1013.69
2018-06-09T02:27:30.071Z,1013.67
2018-06-09T02:28:29.995Z,1013.72
2018-06-09T02:29:29.980Z,1013.71
2018-06-09T02:30:30.082Z,1013.71
2018-06-09T02:31:30.153Z,1013.72
2018-06-09T02:32:32.592Z,1013.74
2018-06-09T02:33:30.081Z,1013.76
2018-06-09T02:34:30.063Z,1013.75
2018-06-09T02:35:30.033Z,1013.76
2018-06-09T02:36:30.004Z,1013.77
2018-06-09T02:37:30.088Z,1013.8
2018-06-09T02:38:29.901Z,1013.76
2018-06-09T02:39:30.286Z,1013.76
2018-06-09T02:40:30.222Z,1013.75
2018-06-09T02:41:30.186Z,1013.74
2018-06-09T02:42:29.773Z,1013.72
2018-06-09T02:43:30.337Z,1013.75
2018-06-09T02:44:30.248Z,1013.7
2018-06-09T02:45:30.255Z,1013.69
2018-06-09T02:46:30.577Z,1013.69
2018-06-09T02:47:30.586Z,1013.7
2018-06-09T02:48:30.181Z,1013.72
2018-06-09T02:49:30.230Z,1013.7
2018-06-09T02:50:30.547Z,1013.72
2018-06-09T02:51:30.363Z,1013.78
2018-06-09T02:52:30.201Z,1013.76
2018-06-09T02:53:30.857Z,1013.78
2018-06-09T02:54:30.198Z,1013.75
2018-06-09T02:55:30.275Z,1013.75
2018-06-09T02:56:30.369Z,1013.69
2018-06-09T02:57:30.260Z,1013.69
2018-06-09T02:58:30.311Z,1013.65
2018-06-09T02:59:30.223Z,1013.65
2018-06-09T03:00:30.260Z,1013.67
2018-06-09T03:01:30.202Z,1013.62
2018-06-09T03:02:30.373Z,1013.65
2018-06-09T03:03:29.876Z,1013.66
2018-06-09T03:04:30.235Z,1013.66
2018-06-09T03:05:30.189Z,1013.71
2018-06-09T03:06:29.851Z,1013.75
2018-06-09T03:07:30.536Z,1013.73
2018-06-09T03:08:30.303Z,1013.73
2018-06-09T03:09:30.240Z,1013.72
2018-06-09T03:10:30.281Z,1013.68
2018-06-09T03:11:29.928Z,1013.64
2018-06-09T03:12:29.876Z,1013.67
2018-06-09T03:13:29.812Z,1013.62
2018-06-09T03:14:30.554Z,1013.57
2018-06-09T03:15:30.215Z,1013.57
2018-06-09T03:16:29.802Z,1013.56
2018-06-09T03:17:30.962Z,1013.6
2018-06-09T03:18:32.218Z,1013.58
2018-06-09T03:19:30.276Z,1013.62
2018-06-09T03:20:29.838Z,1013.63
2018-06-09T03:21:29.834Z,1013.64
2018-06-09T03:22:30.556Z,1013.7
2018-06-09T03:23:30.271Z,1013.65
2018-06-09T03:24:29.880Z,1013.71
2018-06-09T03:25:30.320Z,1013.71
2018-06-09T03:26:30.350Z,1013.73
2018-06-09T03:27:29.883Z,1013.71
2018-06-09T03:28:32.666Z,1013.75
2018-06-09T03:29:30.874Z,1013.69
2018-06-09T03:30:29.878Z,1013.72
2018-06-09T03:31:32.405Z,1013.72
2018-06-09T03:32:30.322Z,1013.72
2018-06-09T03:33:29.843Z,1013.72
2018-06-09T03:34:30.254Z,1013.73
2018-06-09T03:35:29.866Z,1013.7
2018-06-09T03:36:30.328Z,1013.74
2018-06-09T03:37:30.256Z,1013.73
2018-06-09T03:38:30.066Z,1013.77
2018-06-09T03:39:29.949Z,1013.76
2018-06-09T03:40:29.956Z,1013.76
2018-06-09T03:41:30.084Z,1013.76
2018-06-09T03:42:29.854Z,1013.77
2018-06-09T03:43:29.935Z,1013.78
2018-06-09T03:44:29.852Z,1013.86
2018-06-09T03:45:29.891Z,1013.87
2018-06-09T03:46:29.852Z,1013.83
2018-06-09T03:47:29.981Z,1013.85
2018-06-09T03:48:29.891Z,1013.86
2018-06-09T03:49:30.040Z,1013.87
2018-06-09T03:50:29.969Z,1013.87
2018-06-09T03:51:30.217Z,1013.95
2018-06-09T03:52:29.885Z,1013.97
2018-06-09T03:53:29.854Z,1013.97
2018-06-09T03:54:30.024Z,1013.95
2018-06-09T03:55:30.000Z,1013.96
2018-06-09T03:56:29.939Z,1013.91
2018-06-09T03:57:30.069Z,1013.91
2018-06-09T03:58:29.917Z,1013.96
2018-06-09T03:59:29.827Z,1013.95
2018-06-09T04:00:29.973Z,1013.96
2018-06-09T04:01:29.931Z,1013.94
2018-06-09T04:02:29.985Z,1013.97
2018-06-09T04:03:29.885Z,1013.97
2018-06-09T04:04:29.692Z,1014.02
2018-06-09T04:05:30.005Z,1013.95
2018-06-09T04:06:29.990Z,1014.02
2018-06-09T04:07:30.024Z,1014
2018-06-09T04:08:30.065Z,1014.04
2018-06-09T04:09:30.054Z,1014.05
2018-06-09T04:10:29.857Z,1014.05
2018-06-09T04:11:30.094Z,1014.07
2018-06-09T04:12:29.882Z,1014.05
2018-06-09T04:13:29.887Z,1014.03
2018-06-09T04:14:29.827Z,1014.05
2018-06-09T04:15:29.872Z,1014.07
2018-06-09T04:16:30.044Z,1014.08
2018-06-09T04:17:29.911Z,1014.08
2018-06-09T04:18:30.017Z,1014.07
2018-06-09T04:19:29.964Z,1014.09
2018-06-09T04:20:30.049Z,1014.12
2018-06-09T04:21:29.827Z,1014.14
2018-06-09T04:22:29.793Z,1014.16
2018-06-09T04:23:30.017Z,1014.19
2018-06-09T04:24:29.792Z,1014.22
2018-06-09T04:25:29.844Z,1014.19
2018-06-09T04:26:29.845Z,1014.22
2018-06-09T04:27:29.914Z,1014.19
2018-06-09T04:28:29.919Z,1014.2
2018-06-09T04:29:29.871Z,1014.22
2018-06-09T04:30:29.868Z,1014.21
2018-06-09T04:31:29.917Z,1014.21
2018-06-09T04:32:29.875Z,1014.24
2018-06-09T04:33:29.824Z,1014.25
2018-06-09T04:34:29.854Z,1014.23
2018-06-09T04:35:30.008Z,1014.27
2018-06-09T04:36:29.844Z,1014.26
2018-06-09T04:37:29.955Z,1014.26
2018-06-09T04:38:31.352Z,1014.29
2018-06-09T04:39:29.929Z,1014.29
2018-06-09T04:40:29.827Z,1014.32
2018-06-09T04:41:29.869Z,1014.29
2018-06-09T04:42:30.173Z,1014.3
2018-06-09T04:43:29.917Z,1014.32
2018-06-09T04:44:29.934Z,1014.35
2018-06-09T04:45:30.005Z,1014.31
2018-06-09T04:46:30.064Z,1014.34
2018-06-09T04:47:29.956Z,1014.37
2018-06-09T04:48:29.994Z,1014.35
2018-06-09T04:49:29.877Z,1014.29
2018-06-09T04:50:30.028Z,1014.29
2018-06-09T04:51:29.899Z,1014.24
2018-06-09T04:52:30.004Z,1014.28
2018-06-09T04:53:29.978Z,1014.23
2018-06-09T04:54:29.893Z,1014.28
2018-06-09T04:55:46.487Z,1014.31
2018-06-09T04:56:30.020Z,1014.34
2018-06-09T04:57:29.816Z,1014.3
2018-06-09T04:58:29.946Z,1014.36
2018-06-09T04:59:30.039Z,1014.35
2018-06-09T05:00:29.817Z,1014.37
2018-06-09T05:01:29.936Z,1014.33
2018-06-09T05:02:29.949Z,1014.39
2018-06-09T05:03:29.888Z,1014.39
2018-06-09T05:04:29.825Z,1014.39
2018-06-09T05:05:29.926Z,1014.41
2018-06-09T05:06:29.755Z,1014.39
2018-06-09T05:07:29.959Z,1014.39
2018-06-09T05:08:29.828Z,1014.38
2018-06-09T05:09:30.033Z,1014.39
2018-06-09T05:10:29.986Z,1014.37
2018-06-09T05:11:29.847Z,1014.36
2018-06-09T05:12:39.780Z,1014.38
2018-06-09T05:13:29.862Z,1014.37
2018-06-09T05:14:29.813Z,1014.35
2018-06-09T05:15:29.890Z,1014.4
2018-06-09T05:16:29.904Z,1014.42
2018-06-09T05:17:29.795Z,1014.44
2018-06-09T05:18:29.894Z,1014.49
2018-06-09T05:19:29.975Z,1014.52
2018-06-09T05:20:29.909Z,1014.53
2018-06-09T05:21:30.031Z,1014.58
2018-06-09T05:22:29.924Z,1014.6
2018-06-09T05:23:29.870Z,1014.57
2018-06-09T05:24:29.830Z,1014.63
2018-06-09T05:25:29.893Z,1014.64
2018-06-09T05:26:29.966Z,1014.66
2018-06-09T05:27:29.961Z,1014.68
2018-06-09T05:28:29.811Z,1014.67
2018-06-09T05:29:29.975Z,1014.65
2018-06-09T05:30:29.806Z,1014.63
2018-06-09T05:31:29.798Z,1014.65
2018-06-09T05:32:29.807Z,1014.66
2018-06-09T05:33:29.834Z,1014.64
2018-06-09T05:34:29.857Z,1014.67
2018-06-09T05:35:29.769Z,1014.63
2018-06-09T05:36:30.005Z,1014.66
2018-06-09T05:37:29.922Z,1014.65
2018-06-09T05:38:29.988Z,1014.65
2018-06-09T05:39:29.896Z,1014.64
2018-06-09T05:40:29.972Z,1014.67
2018-06-09T05:41:30.015Z,1014.71
2018-06-09T05:42:29.929Z,1014.73
2018-06-09T05:43:29.923Z,1014.74
2018-06-09T05:44:29.845Z,1014.79
2018-06-09T05:45:29.912Z,1014.75
2018-06-09T05:46:29.762Z,1014.75
2018-06-09T05:47:29.788Z,1014.73
2018-06-09T05:48:29.908Z,1014.71
2018-06-09T05:49:30.319Z,1014.69
2018-06-09T05:50:29.967Z,1014.72
2018-06-09T05:51:29.987Z,1014.74
2018-06-09T05:52:29.994Z,1014.74
2018-06-09T05:53:29.891Z,1014.75
2018-06-09T05:54:29.895Z,1014.81
2018-06-09T05:55:30.041Z,1014.79
2018-06-09T05:56:30.089Z,1014.82
2018-06-09T05:57:39.871Z,1014.83
2018-06-09T05:58:30.013Z,1014.83
2018-06-09T05:59:30.001Z,1014.86
2018-06-09T06:00:29.951Z,1014.89
2018-06-09T06:01:29.903Z,1014.88
2018-06-09T06:02:29.780Z,1014.89
2018-06-09T06:03:29.736Z,1014.85
2018-06-09T06:04:29.896Z,1014.92
2018-06-09T06:05:29.992Z,1014.92
2018-06-09T06:06:29.970Z,1014.91
2018-06-09T06:07:29.896Z,1014.9
2018-06-09T06:08:29.984Z,1014.9
2018-06-09T06:09:29.979Z,1014.88
2018-06-09T06:10:29.937Z,1014.91
2018-06-09T06:11:29.743Z,1014.93
2018-06-09T06:12:29.963Z,1014.9
2018-06-09T06:13:30.011Z,1014.9
2018-06-09T06:14:30.104Z,1014.91
2018-06-09T06:15:30.069Z,1014.89
2018-06-09T06:16:29.882Z,1014.87
2018-06-09T06:17:29.882Z,1014.88
2018-06-09T06:18:30.037Z,1014.87
2018-06-09T06:19:30.129Z,1014.89
2018-06-09T06:20:29.837Z,1014.86
2018-06-09T06:21:30.087Z,1014.9
2018-06-09T06:22:29.885Z,1014.87
2018-06-09T06:23:30.092Z,1014.92
2018-06-09T06:24:29.899Z,1014.9
2018-06-09T06:25:30.048Z,1014.87
2018-06-09T06:26:29.953Z,1014.86
2018-06-09T06:27:29.940Z,1014.89
2018-06-09T06:28:30.002Z,1014.91
2018-06-09T06:29:29.749Z,1014.9
2018-06-09T06:30:29.790Z,1014.9
2018-06-09T06:31:29.752Z,1014.92
2018-06-09T06:32:29.787Z,1014.91
2018-06-09T06:33:30.047Z,1014.91
2018-06-09T06:34:29.804Z,1014.89
2018-06-09T06:35:30.019Z,1014.88
2018-06-09T06:36:29.851Z,1014.88
2018-06-09T06:37:29.982Z,1014.89
2018-06-09T06:38:29.848Z,1014.86
2018-06-09T06:39:29.979Z,1014.89
2018-06-09T06:40:29.862Z,1014.88
2018-06-09T06:41:29.754Z,1014.89
2018-06-09T06:42:29.745Z,1014.9
2018-06-09T06:43:29.901Z,1014.9
2018-06-09T06:44:29.795Z,1014.85
2018-06-09T06:45:29.962Z,1014.83
2018-06-09T06:46:29.835Z,1014.84
2018-06-09T06:47:29.927Z,1014.83
2018-06-09T06:48:29.937Z,1014.81
2018-06-09T06:49:29.851Z,1014.85
2018-06-09T06:50:29.909Z,1014.81
2018-06-09T06:51:29.774Z,1014.83
2018-06-09T06:52:29.861Z,1014.87
2018-06-09T06:53:29.795Z,1014.89
2018-06-09T06:54:29.875Z,1014.88
2018-06-09T06:55:30.011Z,1014.88
2018-06-09T06:56:29.911Z,1014.88
2018-06-09T06:57:29.729Z,1014.87
2018-06-09T06:58:29.996Z,1014.84
2018-06-09T06:59:29.804Z,1014.86
2018-06-09T07:00:29.822Z,1014.89
2018-06-09T07:01:29.837Z,1014.89
2018-06-09T07:02:29.744Z,1014.89
2018-06-09T07:03:29.855Z,1014.91
2018-06-09T07:04:29.838Z,1014.89
2018-06-09T07:05:29.862Z,1014.92
2018-06-09T07:06:30.230Z,1014.89
2018-06-09T07:07:29.989Z,1014.86
2018-06-09T07:08:30.063Z,1014.86
2018-06-09T07:09:29.865Z,1014.83
2018-06-09T07:10:29.912Z,1014.84
2018-06-09T07:11:29.851Z,1014.82
2018-06-09T07:12:29.791Z,1014.84
2018-06-09T07:13:29.992Z,1014.8
2018-06-09T07:14:29.871Z,1014.78
2018-06-09T07:15:29.948Z,1014.8
2018-06-09T07:16:29.885Z,1014.82
2018-06-09T07:17:29.980Z,1014.79
2018-06-09T07:18:29.765Z,1014.79
2018-06-09T07:19:29.873Z,1014.79
2018-06-09T07:20:30.029Z,1014.8
2018-06-09T07:21:29.981Z,1014.82
2018-06-09T07:22:29.887Z,1014.8
2018-06-09T07:23:29.891Z,1014.81
2018-06-09T07:24:29.796Z,1014.84
2018-06-09T07:25:30.055Z,1014.86
2018-06-09T07:26:29.847Z,1014.87
2018-06-09T07:27:29.951Z,1014.82
2018-06-09T07:28:29.945Z,1014.81
2018-06-09T07:29:29.923Z,1014.83
2018-06-09T07:30:29.737Z,1014.82
2018-06-09T07:31:29.754Z,1014.81
2018-06-09T07:32:29.842Z,1014.75
2018-06-09T07:33:29.803Z,1014.84
2018-06-09T07:34:29.851Z,1014.78
2018-06-09T07:35:29.991Z,1014.83
2018-06-09T07:36:30.029Z,1014.84
2018-06-09T07:37:29.835Z,1014.84
2018-06-09T07:38:30.199Z,1014.86
2018-06-09T07:39:30.161Z,1014.87
2018-06-09T07:40:29.910Z,1014.83
2018-06-09T07:41:29.963Z,1014.8
2018-06-09T07:42:29.730Z,1014.8
2018-06-09T07:43:29.803Z,1014.76
2018-06-09T07:44:30.091Z,1014.76
2018-06-09T07:45:29.915Z,1014.77
2018-06-09T07:46:29.849Z,1014.77
2018-06-09T07:47:29.905Z,1014.81
2018-06-09T07:48:29.834Z,1014.78
2018-06-09T07:49:30.001Z,1014.78
2018-06-09T07:50:29.756Z,1014.76
2018-06-09T07:51:29.729Z,1014.81
2018-06-09T07:52:29.842Z,1014.83
2018-06-09T07:53:29.844Z,1014.82
2018-06-09T07:54:29.874Z,1014.82
2018-06-09T07:55:29.874Z,1014.78
2018-06-09T07:56:29.969Z,1014.8
2018-06-09T07:57:29.839Z,1014.83
2018-06-09T07:58:29.886Z,1014.82
2018-06-09T07:59:29.981Z,1014.83
2018-06-09T08:00:29.762Z,1014.8
2018-06-09T08:01:29.891Z,1014.81
2018-06-09T08:02:29.863Z,1014.82
2018-06-09T08:03:29.734Z,1014.79
2018-06-09T08:04:29.955Z,1014.75
2018-06-09T08:05:29.926Z,1014.72
2018-06-09T08:06:29.762Z,1014.75
2018-06-09T08:07:29.862Z,1014.71
2018-06-09T08:08:29.835Z,1014.7
2018-06-09T08:09:29.878Z,1014.7
2018-06-09T08:10:29.994Z,1014.66
2018-06-09T08:11:29.952Z,1014.7
2018-06-09T08:12:29.862Z,1014.69
2018-06-09T08:13:30.066Z,1014.66
2018-06-09T08:14:30.120Z,1014.7
2018-06-09T08:15:29.940Z,1014.68
2018-06-09T08:16:29.830Z,1014.66
2018-06-09T08:17:29.834Z,1014.66
2018-06-09T08:18:29.890Z,1014.63
2018-06-09T08:19:30.291Z,1014.69
2018-06-09T08:20:29.727Z,1014.68
2018-06-09T08:21:29.998Z,1014.67
2018-06-09T08:22:29.877Z,1014.65
2018-06-09T08:23:29.831Z,1014.66
2018-06-09T08:24:30.179Z,1014.65
2018-06-09T08:25:29.829Z,1014.65
2018-06-09T08:26:29.904Z,1014.66
2018-06-09T08:27:29.981Z,1014.65
2018-06-09T08:28:29.877Z,1014.65
2018-06-09T08:29:29.734Z,1014.63
2018-06-09T08:30:29.931Z,1014.6
2018-06-09T08:31:29.973Z,1014.64
2018-06-09T08:32:29.965Z,1014.63
2018-06-09T08:33:29.931Z,1014.61
2018-06-09T08:34:30.084Z,1014.57
2018-06-09T08:35:29.944Z,1014.54
2018-06-09T08:36:29.983Z,1014.58
2018-06-09T08:37:29.993Z,1014.55
2018-06-09T08:38:30.532Z,1014.52
2018-06-09T08:39:29.848Z,1014.51
2018-06-09T08:40:29.766Z,1014.5
2018-06-09T08:41:29.853Z,1014.53
2018-06-09T08:42:29.793Z,1014.5
2018-06-09T08:43:29.953Z,1014.51
2018-06-09T08:44:29.828Z,1014.47
2018-06-09T08:45:29.955Z,1014.5
2018-06-09T08:46:29.862Z,1014.52
2018-06-09T08:47:29.889Z,1014.52
2018-06-09T08:48:29.764Z,1014.53
2018-06-09T08:49:29.679Z,1014.55
2018-06-09T08:50:29.778Z,1014.51
2018-06-09T08:51:29.950Z,1014.51
2018-06-09T08:52:29.877Z,1014.45
2018-06-09T08:53:29.997Z,1014.44
2018-06-09T08:54:29.825Z,1014.52
2018-06-09T08:55:29.946Z,1014.52
2018-06-09T08:56:29.752Z,1014.51
2018-06-09T08:57:29.832Z,1014.54
2018-06-09T08:58:29.777Z,1014.54
2018-06-09T08:59:29.877Z,1014.53
2018-06-09T09:00:29.970Z,1014.48
2018-06-09T09:01:30.231Z,1014.55
2018-06-09T09:02:29.751Z,1014.52
2018-06-09T09:03:29.948Z,1014.53
2018-06-09T09:04:29.985Z,1014.54
2018-06-09T09:05:29.875Z,1014.58
2018-06-09T09:06:29.788Z,1014.57
2018-06-09T09:07:29.733Z,1014.55
2018-06-09T09:08:29.787Z,1014.53
2018-06-09T09:09:29.909Z,1014.58
2018-06-09T09:10:29.786Z,1014.56
2018-06-09T09:11:29.832Z,1014.55
2018-06-09T09:12:29.879Z,1014.55
2018-06-09T09:13:29.756Z,1014.51
2018-06-09T09:14:29.701Z,1014.48
2018-06-09T09:15:29.982Z,1014.53
2018-06-09T09:16:30.117Z,1014.49
2018-06-09T09:17:29.838Z,1014.54
2018-06-09T09:18:29.806Z,1014.53
2018-06-09T09:19:29.913Z,1014.53
2018-06-09T09:20:29.996Z,1014.51
2018-06-09T09:21:29.783Z,1014.58
2018-06-09T09:22:29.858Z,1014.59
2018-06-09T09:23:29.992Z,1014.57
2018-06-09T09:24:29.894Z,1014.57
2018-06-09T09:25:30.109Z,1014.54
2018-06-09T09:26:29.737Z,1014.5
2018-06-09T09:27:29.755Z,1014.51
2018-06-09T09:28:29.823Z,1014.55
2018-06-09T09:29:29.736Z,1014.53
2018-06-09T09:30:29.892Z,1014.52
2018-06-09T09:31:30.024Z,1014.5
2018-06-09T09:32:29.810Z,1014.54
2018-06-09T09:33:29.966Z,1014.49
2018-06-09T09:34:29.917Z,1014.46
2018-06-09T09:35:29.814Z,1014.49
2018-06-09T09:36:29.941Z,1014.49
2018-06-09T09:37:29.703Z,1014.49
2018-06-09T09:38:29.913Z,1014.49
2018-06-09T09:39:29.790Z,1014.5
2018-06-09T09:40:30.083Z,1014.47
2018-06-09T09:41:29.982Z,1014.46
2018-06-09T09:42:29.759Z,1014.46
2018-06-09T09:43:29.796Z,1014.41
2018-06-09T09:44:29.889Z,1014.45
2018-06-09T09:45:30.049Z,1014.42
2018-06-09T09:46:29.720Z,1014.42
2018-06-09T09:47:29.677Z,1014.39
2018-06-09T09:48:29.902Z,1014.42
2018-06-09T09:49:29.793Z,1014.45
2018-06-09T09:50:30.004Z,1014.43
2018-06-09T09:51:29.857Z,1014.39
2018-06-09T09:52:29.834Z,1014.43
2018-06-09T09:53:29.841Z,1014.45
2018-06-09T09:54:29.981Z,1014.42
2018-06-09T09:55:29.833Z,1014.41
2018-06-09T09:56:29.710Z,1014.45
2018-06-09T09:57:29.776Z,1014.5
2018-06-09T09:58:30.011Z,1014.4
2018-06-09T09:59:29.919Z,1014.43
2018-06-09T10:00:29.960Z,1014.44
2018-06-09T10:01:29.888Z,1014.43
2018-06-09T10:02:29.728Z,1014.48
2018-06-09T10:03:29.902Z,1014.44
2018-06-09T10:04:29.849Z,1014.41
2018-06-09T10:05:29.726Z,1014.39
2018-06-09T10:06:30.173Z,1014.42
2018-06-09T10:07:29.790Z,1014.43
2018-06-09T10:08:29.815Z,1014.37
2018-06-09T10:09:29.769Z,1014.37
2018-06-09T10:10:29.911Z,1014.37
2018-06-09T10:11:29.892Z,1014.33
2018-06-09T10:12:29.782Z,1014.35
2018-06-09T10:13:29.769Z,1014.31
2018-06-09T10:14:29.942Z,1014.3
2018-06-09T10:15:29.767Z,1014.29
2018-06-09T10:16:29.721Z,1014.27
2018-06-09T10:17:29.922Z,1014.28
2018-06-09T10:18:29.707Z,1014.29
2018-06-09T10:19:29.766Z,1014.3
2018-06-09T10:20:29.673Z,1014.29
2018-06-09T10:21:29.778Z,1014.3
2018-06-09T10:22:29.792Z,1014.3
2018-06-09T10:23:29.809Z,1014.27
2018-06-09T10:24:29.820Z,1014.28
2018-06-09T10:25:29.765Z,1014.28
2018-06-09T10:26:29.810Z,1014.24
2018-06-09T10:27:29.662Z,1014.23
2018-06-09T10:28:29.720Z,1014.24
2018-06-09T10:29:29.775Z,1014.2
2018-06-09T10:30:29.769Z,1014.2
2018-06-09T10:31:29.812Z,1014.24
2018-06-09T10:32:29.770Z,1014.22
2018-06-09T10:33:29.934Z,1014.18
2018-06-09T10:34:30.047Z,1014.23
2018-06-09T10:35:29.826Z,1014.23
2018-06-09T10:36:29.952Z,1014.2
2018-06-09T10:37:29.865Z,1014.25
2018-06-09T10:38:29.628Z,1014.23
2018-06-09T10:39:29.816Z,1014.22
2018-06-09T10:40:30.102Z,1014.22
2018-06-09T10:41:29.949Z,1014.22
2018-06-09T10:42:29.884Z,1014.17
2018-06-09T10:43:29.834Z,1014.19
2018-06-09T10:44:29.902Z,1014.19
2018-06-09T10:45:29.891Z,1014.18
2018-06-09T10:46:29.853Z,1014.15
2018-06-09T10:47:29.975Z,1014.19
2018-06-09T10:48:29.662Z,1014.14
2018-06-09T10:49:29.701Z,1014.1
2018-06-09T10:50:29.740Z,1014.12
2018-06-09T10:51:29.821Z,1014.11
2018-06-09T10:52:29.965Z,1014.1
2018-06-09T10:53:29.930Z,1014.09
2018-06-09T10:54:29.707Z,1014.07
2018-06-09T10:55:29.663Z,1014.05
2018-06-09T10:56:29.695Z,1014.08
2018-06-09T10:57:33.198Z,1014.05
2018-06-09T10:58:29.882Z,1014.05
2018-06-09T10:59:29.706Z,1014.01
2018-06-09T11:00:29.738Z,1014.05
2018-06-09T11:01:29.875Z,1014.02
2018-06-09T11:02:29.958Z,1014.03
2018-06-09T11:03:29.983Z,1013.97
2018-06-09T11:04:29.971Z,1013.99
2018-06-09T11:05:29.804Z,1013.98
2018-06-09T11:06:29.941Z,1013.96
2018-06-09T11:07:30.112Z,1013.94
2018-06-09T11:08:29.815Z,1013.97
2018-06-09T11:09:29.683Z,1013.92
2018-06-09T11:10:29.989Z,1013.87
2018-06-09T11:11:29.723Z,1013.91
2018-06-09T11:12:29.857Z,1013.9
2018-06-09T11:13:29.817Z,1013.86
2018-06-09T11:14:29.706Z,1013.86
2018-06-09T11:15:30.276Z,1013.88
2018-06-09T11:16:29.889Z,1013.84
2018-06-09T11:17:30.110Z,1013.83
2018-06-09T11:18:29.819Z,1013.86
2018-06-09T11:19:29.718Z,1013.81
2018-06-09T11:20:29.871Z,1013.79
2018-06-09T11:21:29.957Z,1013.84
2018-06-09T11:22:29.724Z,1013.81
2018-06-09T11:23:29.731Z,1013.81
2018-06-09T11:24:30.235Z,1013.79
2018-06-09T11:25:29.961Z,1013.8
2018-06-09T11:26:29.850Z,1013.78
2018-06-09T11:27:29.738Z,1013.8
2018-06-09T11:28:29.726Z,1013.77
2018-06-09T11:29:29.853Z,1013.74
2018-06-09T11:30:29.799Z,1013.73
2018-06-09T11:31:29.648Z,1013.72
2018-06-09T11:32:29.749Z,1013.73
2018-06-09T11:33:29.747Z,1013.67
2018-06-09T11:34:29.792Z,1013.66
2018-06-09T11:35:29.742Z,1013.64
2018-06-09T11:36:29.683Z,1013.64
2018-06-09T11:37:29.888Z,1013.65
2018-06-09T11:38:29.807Z,1013.6
2018-06-09T11:39:29.846Z,1013.6
2018-06-09T11:40:29.737Z,1013.58
2018-06-09T11:41:29.938Z,1013.53
2018-06-09T11:42:29.735Z,1013.53
2018-06-09T11:43:29.939Z,1013.49
2018-06-09T11:44:29.845Z,1013.48
2018-06-09T11:45:29.740Z,1013.4
2018-06-09T11:46:29.862Z,1013.45
2018-06-09T11:47:29.861Z,1013.44
2018-06-09T11:48:29.800Z,1013.46
2018-06-09T11:49:29.771Z,1013.43
2018-06-09T11:50:29.837Z,1013.4
2018-06-09T11:51:29.851Z,1013.37
2018-06-09T11:52:29.767Z,1013.34
2018-06-09T11:53:29.802Z,1013.34
2018-06-09T11:54:29.933Z,1013.31
2018-06-09T11:55:29.802Z,1013.33
2018-06-09T11:56:29.877Z,1013.26
2018-06-09T11:57:29.686Z,1013.28
2018-06-09T11:58:29.912Z,1013.26
2018-06-09T11:59:29.913Z,1013.25
2018-06-09T12:00:29.857Z,1013.24
2018-06-09T12:01:29.797Z,1013.27
2018-06-09T12:02:29.687Z,1013.21
2018-06-09T12:03:29.747Z,1013.25
2018-06-09T12:04:29.983Z,1013.3
2018-06-09T12:05:29.706Z,1013.23
2018-06-09T12:06:29.849Z,1013.21
2018-06-09T12:07:29.800Z,1013.25